Time;durP1;ratioP1;P1;durP2;ratioP2;P2;SDS_P1;SDS_P2;PMS_P1;PMS_P2;Temp;Humidity;BMP_temperature;BMP_pressure;BME280_temperature;BME280_humidity;BME280_pressure;Samples;Min_cycle;Max_cycle;Signal;HPM_P1;HPM_P2
2023/06/01 00:01:32;;;;;;;11.15;5.47;;;15.80;99.90;;;;;;5052921;28;20025;-62
2023/06/01 00:03:58;;;;;;;9.98;5.45;;;15.70;99.90;;;;;;5052239;28;20453;-61
2023/06/01 00:06:28;;;;;;;15.18;5.68;;;15.60;99.90;;;;;;5054418;28;20704;-61
2023/06/01 00:08:55;;;;;;;12.77;5.90;;;15.40;99.90;;;;;;5053495;28;20057;-61
2023/06/01 00:11:21;;;;;;;9.55;5.60;;;15.50;99.90;;;;;;5057349;28;20067;-61
2023/06/01 00:13:48;;;;;;;13.70;6.35;;;15.40;99.90;;;;;;5054497;28;20044;-62
2023/06/01 00:16:13;;;;;;;10.52;5.70;;;15.40;99.90;;;;;;5052713;28;20393;-61
2023/06/01 00:18:39;;;;;;;12.85;6.22;;;14.90;99.90;;;;;;5053891;28;20044;-61
2023/06/01 00:21:05;;;;;;;12.13;6.25;;;14.80;99.90;;;;;;5055451;28;20087;-60
2023/06/01 00:23:31;;;;;;;11.30;6.40;;;14.90;99.90;;;;;;5053771;28;20431;-61
2023/06/01 00:25:57;;;;;;;12.55;6.90;;;14.70;99.90;;;;;;5058365;28;20041;-61
2023/06/01 00:28:23;;;;;;;14.95;6.72;;;14.70;99.90;;;;;;5051378;28;20510;-61
2023/06/01 00:30:48;;;;;;;10.00;6.50;;;15.00;99.90;;;;;;5054210;28;20070;-61
2023/06/01 00:33:14;;;;;;;11.13;7.05;;;14.90;99.90;;;;;;5053016;28;20107;-61
2023/06/01 00:35:40;;;;;;;12.18;7.10;;;14.70;99.90;;;;;;5049072;28;20740;-61
2023/06/01 00:38:06;;;;;;;13.32;8.02;;;14.60;99.90;;;;;;5049583;28;20052;-61
2023/06/01 00:40:34;;;;;;;10.52;7.50;;;14.60;99.90;;;;;;5051501;28;20049;-61
2023/06/01 00:43:00;;;;;;;17.15;8.25;;;14.50;99.90;;;;;;5055779;28;20099;-61
2023/06/01 00:45:25;;;;;;;11.05;8.00;;;14.60;99.90;;;;;;5052332;28;20032;-61
2023/06/01 00:47:52;;;;;;;13.75;8.68;;;14.40;99.90;;;;;;5050508;28;20443;-61
2023/06/01 00:50:18;;;;;;;11.27;8.10;;;14.40;99.90;;;;;;5047827;28;20041;-61
2023/06/01 00:52:44;;;;;;;17.52;9.05;;;14.10;99.90;;;;;;5052235;28;20053;-61
2023/06/01 00:55:10;;;;;;;14.85;9.18;;;14.10;99.90;;;;;;5055308;28;20083;-61
2023/06/01 00:57:38;;;;;;;15.00;9.52;;;14.10;99.90;;;;;;5049278;28;20040;-61
2023/06/01 01:00:08;;;;;;;16.17;9.00;;;14.10;99.90;;;;;;5052688;28;20072;-60
2023/06/01 01:02:37;;;;;;;15.63;9.27;;;14.20;99.90;;;;;;5050996;28;20029;-61
2023/06/01 01:05:09;;;;;;;16.38;10.00;;;14.00;99.90;;;;;;5056129;28;20472;-61
2023/06/01 01:07:43;;;;;;;15.45;9.95;;;13.80;99.90;;;;;;5052859;28;20179;-61
2023/06/01 01:10:28;;;;;;;16.88;9.35;;;13.90;99.90;;;;;;5045787;28;20040;-61
2023/06/01 01:12:59;;;;;;;15.90;10.90;;;14.20;99.90;;;;;;5047917;28;20044;-62
2023/06/01 01:15:32;;;;;;;17.00;10.50;;;13.80;99.90;;;;;;5053092;28;20117;-61
2023/06/01 01:18:07;;;;;;;18.27;10.27;;;13.60;99.90;;;;;;5049178;28;20664;-61
2023/06/01 01:20:42;;;;;;;15.70;9.73;;;13.60;99.90;;;;;;5058128;28;20028;-61
2023/06/01 01:23:45;;;;;;;13.60;9.48;;;13.70;99.90;;;;;;5048209;28;20060;-61
2023/06/01 01:26:24;;;;;;;16.45;10.70;;;14.10;99.90;;;;;;5048326;28;20079;-61
2023/06/01 01:28:56;;;;;;;17.40;10.60;;;13.80;99.90;;;;;;5049681;28;20059;-61
2023/06/01 01:31:24;;;;;;;18.65;12.15;;;13.40;99.90;;;;;;5051808;28;20372;-61
2023/06/01 01:33:53;;;;;;;17.10;11.38;;;13.30;99.90;;;;;;5051872;28;20403;-61
2023/06/01 01:36:19;;;;;;;16.17;10.18;;;13.20;99.90;;;;;;5049471;28;20029;-61
2023/06/01 01:38:45;;;;;;;17.38;11.07;;;13.10;99.90;;;;;;5054843;28;20025;-61
2023/06/01 01:41:10;;;;;;;18.38;11.43;;;13.10;99.90;;;;;;5049798;28;20345;-61
2023/06/01 01:43:38;;;;;;;18.38;12.02;;;13.20;99.90;;;;;;5059109;28;20040;-61
2023/06/01 01:46:10;;;;;;;22.27;12.23;;;13.30;99.90;;;;;;5050224;28;20322;-61
2023/06/01 01:48:39;;;;;;;18.88;11.50;;;13.30;99.90;;;;;;5053934;28;21109;-61
2023/06/01 01:51:13;;;;;;;17.80;11.90;;;13.20;99.90;;;;;;5054011;28;20037;-61
2023/06/01 01:53:41;;;;;;;17.38;10.93;;;13.20;99.90;;;;;;5052314;28;20564;-61
2023/06/01 01:56:08;;;;;;;18.13;11.25;;;13.40;99.90;;;;;;5052546;28;20107;-61
2023/06/01 01:58:34;;;;;;;17.88;11.48;;;13.30;99.90;;;;;;5050264;28;20029;-61
2023/06/01 02:01:01;;;;;;;19.15;11.90;;;13.10;99.90;;;;;;5053534;28;20037;-61
2023/06/01 02:03:26;;;;;;;19.15;12.15;;;13.10;99.90;;;;;;5049897;28;20933;-61
2023/06/01 02:05:52;;;;;;;19.42;12.30;;;13.20;99.90;;;;;;5056001;28;20422;-61
2023/06/01 02:08:18;;;;;;;19.52;12.80;;;13.10;99.90;;;;;;5053125;28;20100;-61
2023/06/01 02:10:44;;;;;;;24.10;13.00;;;12.80;99.90;;;;;;5052958;28;20369;-61
2023/06/01 02:13:09;;;;;;;24.90;14.15;;;12.60;99.90;;;;;;5054385;28;20116;-61
2023/06/01 02:15:35;;;;;;;23.90;13.07;;;12.50;99.90;;;;;;5051993;28;20532;-61
2023/06/01 02:18:02;;;;;;;22.55;13.52;;;12.50;99.90;;;;;;5059383;28;20037;-61
2023/06/01 02:20:27;;;;;;;22.23;13.48;;;12.70;99.90;;;;;;5057079;28;20029;-61
2023/06/01 02:22:53;;;;;;;26.33;13.82;;;12.50;99.90;;;;;;5051874;28;20139;-61
2023/06/01 02:25:19;;;;;;;25.52;13.52;;;12.30;99.90;;;;;;5050344;28;20025;-61
2023/06/01 02:27:45;;;;;;;23.15;13.23;;;12.30;99.90;;;;;;5052657;28;20574;-61
2023/06/01 02:30:11;;;;;;;24.52;13.88;;;12.40;99.90;;;;;;5051575;28;20108;-62
2023/06/01 02:32:37;;;;;;;25.40;14.80;;;12.70;99.90;;;;;;5054461;28;20441;-61
2023/06/01 02:35:03;;;;;;;26.85;14.45;;;12.40;99.90;;;;;;5053503;28;20036;-60
2023/06/01 02:37:29;;;;;;;21.30;13.95;;;12.40;99.90;;;;;;5053277;28;20358;-61
2023/06/01 02:39:55;;;;;;;21.80;14.38;;;12.20;99.90;;;;;;5053503;28;20091;-61
2023/06/01 02:42:20;;;;;;;27.27;14.50;;;12.00;99.90;;;;;;5055191;28;20387;-61
2023/06/01 02:44:46;;;;;;;24.48;15.75;;;12.00;99.90;;;;;;5052445;28;20037;-61
2023/06/01 02:47:11;;;;;;;23.83;14.90;;;12.30;99.90;;;;;;5054584;28;20039;-61
2023/06/01 02:49:37;;;;;;;27.42;15.73;;;12.00;99.90;;;;;;5053095;28;20037;-61
2023/06/01 02:52:03;;;;;;;26.13;15.40;;;11.90;99.90;;;;;;5054259;28;20058;-61
2023/06/01 02:54:28;;;;;;;30.75;15.80;;;12.10;99.90;;;;;;5054441;28;20590;-61
2023/06/01 02:56:54;;;;;;;28.20;16.13;;;11.90;99.90;;;;;;5050583;28;20033;-61
2023/06/01 02:59:20;;;;;;;24.90;16.48;;;11.90;99.90;;;;;;5056145;28;20037;-61
2023/06/01 03:01:46;;;;;;;31.13;17.73;;;11.80;99.90;;;;;;5054213;28;20037;-61
2023/06/01 03:04:12;;;;;;;26.50;15.48;;;11.60;99.90;;;;;;5048711;28;20124;-61
2023/06/01 03:06:38;;;;;;;34.50;18.45;;;11.60;99.90;;;;;;5052519;28;20044;-61
2023/06/01 03:09:05;;;;;;;35.17;19.10;;;11.60;99.90;;;;;;5053262;28;20041;-60
2023/06/01 03:11:30;;;;;;;31.02;18.08;;;11.80;99.90;;;;;;5050783;28;20421;-61
2023/06/01 03:13:58;;;;;;;36.47;19.23;;;11.60;99.90;;;;;;5053626;28;20087;-61
2023/06/01 03:16:25;;;;;;;36.67;19.05;;;11.60;99.90;;;;;;5051353;28;20123;-60
2023/06/01 03:18:52;;;;;;;39.25;20.60;;;11.60;99.90;;;;;;5051333;28;20029;-61
2023/06/01 03:21:17;;;;;;;35.88;21.48;;;11.70;99.90;;;;;;5051394;28;20236;-61
2023/06/01 03:23:43;;;;;;;43.72;22.90;;;11.90;99.90;;;;;;5054541;28;20139;-61
2023/06/01 03:26:12;;;;;;;34.70;22.33;;;11.70;99.90;;;;;;5055800;28;20699;-60
2023/06/01 03:28:38;;;;;;;37.70;22.35;;;11.60;99.90;;;;;;5052900;28;20024;-60
2023/06/01 03:31:04;;;;;;;37.38;22.42;;;11.50;99.90;;;;;;5051766;28;20028;-61
2023/06/01 03:33:30;;;;;;;43.53;22.77;;;11.50;99.90;;;;;;5047886;28;20091;-61
2023/06/01 03:35:56;;;;;;;36.67;20.80;;;11.50;99.90;;;;;;5055812;28;20045;-61
2023/06/01 03:38:22;;;;;;;36.97;21.95;;;11.30;99.90;;;;;;5053454;28;20116;-61
2023/06/01 03:40:47;;;;;;;33.00;20.60;;;11.40;99.90;;;;;;5052071;28;20098;-61
2023/06/01 03:43:13;;;;;;;32.05;19.67;;;11.60;99.90;;;;;;5057803;28;20365;-61
2023/06/01 03:45:39;;;;;;;29.20;19.15;;;11.60;99.90;;;;;;5049834;28;20404;-61
2023/06/01 03:48:05;;;;;;;33.13;19.85;;;11.80;99.90;;;;;;5054617;28;20048;-60
2023/06/01 03:50:30;;;;;;;33.22;18.52;;;11.60;99.90;;;;;;5055965;28;20044;-61
2023/06/01 03:52:56;;;;;;;31.08;18.67;;;11.30;99.90;;;;;;5053057;28;20401;-61
2023/06/01 03:55:22;;;;;;;39.75;23.02;;;11.20;99.90;;;;;;5055064;28;20037;-61
2023/06/01 03:57:48;;;;;;;41.58;24.27;;;11.20;99.90;;;;;;5055880;28;20473;-61
2023/06/01 04:00:19;;;;;;;36.42;20.50;;;11.50;99.90;;;;;;5051703;28;20028;-61
2023/06/01 04:02:54;;;;;;;30.48;17.58;;;11.50;99.90;;;;;;5052491;28;20025;-60
2023/06/01 04:05:20;;;;;;;33.15;20.00;;;11.30;99.90;;;;;;5051177;28;20037;-61
2023/06/01 04:07:47;;;;;;;30.08;19.23;;;11.10;99.90;;;;;;5057498;28;20642;-62
2023/06/01 04:10:14;;;;;;;31.75;19.77;;;11.30;99.90;;;;;;5054449;28;20033;-61
2023/06/01 04:12:44;;;;;;;35.28;22.45;;;11.30;99.90;;;;;;5054195;28;20029;-60
2023/06/01 04:15:11;;;;;;;38.05;21.50;;;11.20;99.90;;;;;;5053771;28;20044;-61
2023/06/01 04:17:37;;;;;;;33.05;20.15;;;11.40;99.90;;;;;;5051222;28;20041;-61
2023/06/01 04:20:06;;;;;;;31.45;21.33;;;11.40;99.90;;;;;;5050799;28;20040;-61
2023/06/01 04:22:32;;;;;;;33.40;21.55;;;11.30;99.90;;;;;;5050866;28;20040;-61
2023/06/01 04:24:57;;;;;;;37.33;22.20;;;11.50;99.90;;;;;;5054070;28;20037;-60
2023/06/01 04:27:24;;;;;;;34.80;21.55;;;11.60;99.90;;;;;;5049336;28;20660;-61
2023/06/01 04:29:50;;;;;;;37.05;22.15;;;11.40;99.90;;;;;;5048030;28;20102;-61
2023/06/01 04:32:21;;;;;;;46.42;26.50;;;11.40;99.90;;;;;;5053299;28;20244;-60
2023/06/01 04:34:49;;;;;;;39.53;22.85;;;11.40;99.90;;;;;;5050936;28;20045;-61
2023/06/01 04:37:19;;;;;;;41.75;24.67;;;11.30;99.90;;;;;;5052227;28;20033;-61
2023/06/01 04:39:48;;;;;;;38.85;22.40;;;11.30;99.90;;;;;;5052924;28;20614;-61
2023/06/01 04:42:16;;;;;;;43.28;24.38;;;11.30;99.90;;;;;;5056397;28;20039;-61
2023/06/01 04:44:49;;;;;;;39.33;24.92;;;11.30;99.90;;;;;;5056292;28;20045;-61
2023/06/01 04:47:16;;;;;;;30.17;18.48;;;11.30;99.90;;;;;;5050308;28;20040;-67
2023/06/01 04:49:43;;;;;;;38.85;22.25;;;11.30;99.90;;;;;;5051689;28;20048;-66
2023/06/01 04:52:10;;;;;;;31.05;19.17;;;11.10;99.90;;;;;;5053631;28;20028;-64
2023/06/01 04:54:36;;;;;;;32.33;19.35;;;11.30;99.90;;;;;;5049740;28;20032;-66
2023/06/01 04:57:02;;;;;;;25.85;18.23;;;11.50;99.90;;;;;;5048531;28;20128;-64
2023/06/01 04:59:27;;;;;;;27.92;18.25;;;11.40;99.90;;;;;;5052868;28;20151;-65
2023/06/01 05:01:53;;;;;;;30.30;18.92;;;11.20;99.90;;;;;;5052042;28;20037;-65
2023/06/01 05:04:18;;;;;;;35.15;22.00;;;11.30;99.90;;;;;;5054527;28;20036;-65
2023/06/01 05:06:44;;;;;;;38.78;23.02;;;11.30;99.90;;;;;;5056066;28;20039;-65
2023/06/01 05:09:10;;;;;;;38.85;23.70;;;11.30;99.90;;;;;;5044231;28;20142;-65
2023/06/01 05:11:35;;;;;;;31.83;20.90;;;11.30;99.90;;;;;;5049361;28;20120;-65
2023/06/01 05:14:02;;;;;;;27.23;17.80;;;11.40;99.90;;;;;;5054257;28;20032;-66
2023/06/01 05:16:28;;;;;;;25.88;16.63;;;11.30;99.90;;;;;;5053892;28;20036;-64
2023/06/01 05:18:55;;;;;;;21.92;15.32;;;11.40;99.90;;;;;;5051353;28;20392;-65
2023/06/01 05:21:21;;;;;;;27.02;16.95;;;11.50;99.90;;;;;;5054944;28;20044;-65
2023/06/01 05:23:47;;;;;;;27.30;17.55;;;11.40;99.90;;;;;;5057386;28;20044;-65
2023/06/01 05:26:12;;;;;;;25.95;16.45;;;11.40;99.90;;;;;;5051465;28;20039;-64
2023/06/01 05:28:38;;;;;;;28.45;18.98;;;11.50;99.90;;;;;;5050125;28;20476;-65
2023/06/01 05:31:05;;;;;;;38.13;23.83;;;11.60;99.90;;;;;;5055852;28;20036;-64
2023/06/01 05:33:30;;;;;;;37.20;23.20;;;11.50;99.90;;;;;;5058301;28;20094;-66
2023/06/01 05:35:56;;;;;;;41.25;24.75;;;11.50;99.90;;;;;;5057738;28;20033;-65
2023/06/01 05:38:22;;;;;;;49.83;28.67;;;11.40;99.90;;;;;;5052359;28;20401;-65
2023/06/01 05:40:47;;;;;;;49.15;30.30;;;11.50;99.90;;;;;;5053203;28;20037;-65
2023/06/01 05:43:14;;;;;;;42.53;27.27;;;11.80;99.90;;;;;;5051477;28;20040;-65
2023/06/01 05:45:39;;;;;;;45.60;29.00;;;11.80;99.90;;;;;;5051165;28;20059;-66
2023/06/01 05:48:05;;;;;;;39.95;27.55;;;11.70;99.90;;;;;;5053319;28;20435;-65
2023/06/01 05:50:30;;;;;;;37.08;24.67;;;11.60;99.90;;;;;;5055066;28;20070;-65
2023/06/01 05:52:56;;;;;;;42.20;27.13;;;11.30;99.90;;;;;;5050304;28;20024;-65
2023/06/01 05:55:22;;;;;;;41.20;26.83;;;11.60;99.90;;;;;;5050822;28;20091;-66
2023/06/01 05:57:47;;;;;;;35.78;23.52;;;11.70;99.90;;;;;;5054023;28;20031;-65
2023/06/01 06:00:15;;;;;;;31.33;20.65;;;12.00;99.90;;;;;;5047024;28;20120;-65
2023/06/01 06:02:44;;;;;;;27.50;18.02;;;11.80;99.90;;;;;;5050530;28;20036;-65
2023/06/01 06:05:09;;;;;;;25.38;16.30;;;11.80;99.90;;;;;;5052171;28;20499;-65
2023/06/01 06:07:35;;;;;;;28.85;16.52;;;12.00;99.90;;;;;;5059112;28;20483;-65
2023/06/01 06:10:01;;;;;;;27.52;18.13;;;12.00;99.90;;;;;;5050744;28;20461;-65
2023/06/01 06:12:27;;;;;;;29.52;19.10;;;11.90;99.90;;;;;;5051085;28;20044;-65
2023/06/01 06:14:53;;;;;;;43.42;28.98;;;11.90;99.90;;;;;;5052353;28;20037;-65
2023/06/01 06:17:19;;;;;;;46.03;27.83;;;11.70;99.90;;;;;;5051067;28;20538;-66
2023/06/01 06:19:45;;;;;;;36.83;23.67;;;11.60;99.90;;;;;;5054789;28;20036;-66
2023/06/01 06:22:11;;;;;;;32.42;21.30;;;11.60;99.90;;;;;;5053608;28;20043;-66
2023/06/01 06:24:36;;;;;;;26.20;19.05;;;11.70;99.90;;;;;;5057287;28;20115;-65
2023/06/01 06:27:03;;;;;;;36.33;24.75;;;11.80;99.90;;;;;;5051030;28;20134;-64
2023/06/01 06:29:29;;;;;;;39.35;25.08;;;11.60;99.90;;;;;;5056185;28;20476;-66
2023/06/01 06:31:54;;;;;;;44.42;27.83;;;11.80;99.90;;;;;;5051240;28;20060;-67
2023/06/01 06:34:20;;;;;;;51.38;31.92;;;11.60;99.90;;;;;;5040622;28;20124;-65
2023/06/01 06:36:46;;;;;;;52.97;34.60;;;11.80;99.90;;;;;;5050831;28;20097;-65
2023/06/01 06:39:12;;;;;;;52.05;32.40;;;11.90;99.90;;;;;;5048185;28;20040;-65
2023/06/01 06:41:40;;;;;;;46.72;31.65;;;12.00;99.90;;;;;;5051208;28;20105;-66
2023/06/01 06:44:06;;;;;;;50.47;33.85;;;11.90;99.90;;;;;;5050314;28;20041;-65
2023/06/01 06:46:31;;;;;;;46.45;33.17;;;11.90;99.90;;;;;;5051499;28;20093;-65
2023/06/01 06:48:57;;;;;;;47.75;33.40;;;12.00;99.90;;;;;;5045501;28;20099;-66
2023/06/01 06:51:22;;;;;;;47.85;29.45;;;12.10;99.90;;;;;;5051145;28;20071;-66
2023/06/01 06:53:48;;;;;;;31.20;22.20;;;12.00;99.90;;;;;;5054143;28;20617;-65
2023/06/01 06:56:14;;;;;;;31.17;21.20;;;12.10;99.90;;;;;;5051692;28;20049;-65
2023/06/01 06:58:39;;;;;;;32.05;20.80;;;12.30;99.90;;;;;;5061434;28;20201;-66
2023/06/01 07:01:05;;;;;;;32.28;20.98;;;12.30;99.90;;;;;;5054788;28;20040;-65
2023/06/01 07:03:32;;;;;;;26.10;17.58;;;12.60;99.90;;;;;;5059036;28;20452;-66
2023/06/01 07:05:58;;;;;;;27.58;16.20;;;12.80;99.90;;;;;;5056630;28;20039;-65
2023/06/01 07:08:23;;;;;;;24.23;15.05;;;12.60;99.90;;;;;;5053677;28;20384;-65
2023/06/01 07:10:49;;;;;;;24.50;15.10;;;13.00;99.90;;;;;;5057184;28;20646;-65
2023/06/01 07:13:14;;;;;;;20.30;14.25;;;12.80;99.90;;;;;;5059665;28;20029;-64
2023/06/01 07:15:40;;;;;;;21.58;14.48;;;13.00;99.90;;;;;;5054098;28;20124;-66
2023/06/01 07:18:06;;;;;;;22.50;13.95;;;13.20;99.90;;;;;;5054519;28;20618;-65
2023/06/01 07:20:32;;;;;;;21.73;13.43;;;13.30;99.90;;;;;;5051076;28;20827;-66
2023/06/01 07:22:58;;;;;;;19.77;12.55;;;13.40;99.90;;;;;;5051935;28;20273;-65
2023/06/01 07:25:24;;;;;;;21.45;13.10;;;13.30;99.90;;;;;;5044463;28;20028;-66
2023/06/01 07:27:50;;;;;;;17.25;11.55;;;13.70;99.90;;;;;;5046461;28;20475;-66
2023/06/01 07:30:16;;;;;;;19.80;13.30;;;13.70;99.90;;;;;;5051129;28;20094;-65
2023/06/01 07:32:42;;;;;;;18.20;12.80;;;13.50;99.90;;;;;;5053400;28;20040;-65
2023/06/01 07:35:08;;;;;;;22.13;13.25;;;13.40;99.90;;;;;;5054702;28;20652;-66
2023/06/01 07:37:34;;;;;;;18.60;13.10;;;13.60;99.90;;;;;;5053422;28;20056;-66
2023/06/01 07:40:00;;;;;;;25.85;17.80;;;14.10;99.90;;;;;;5055094;28;20025;-66
2023/06/01 07:42:25;;;;;;;28.85;20.58;;;14.00;99.90;;;;;;5054484;28;20079;-67
2023/06/01 07:44:51;;;;;;;25.92;16.60;;;13.90;99.90;;;;;;5053396;28;20071;-65
2023/06/01 07:47:16;;;;;;;21.25;12.20;;;14.20;99.90;;;;;;5058060;28;20040;-66
2023/06/01 07:49:42;;;;;;;18.05;10.05;;;14.10;99.90;;;;;;5059856;28;20089;-66
2023/06/01 07:52:08;;;;;;;16.90;11.43;;;13.90;99.90;;;;;;5060375;28;20354;-65
2023/06/01 07:54:37;;;;;;;18.58;11.50;;;13.90;99.90;;;;;;5054353;28;20033;-66
2023/06/01 07:57:04;;;;;;;20.60;11.85;;;14.10;99.90;;;;;;5057344;28;20433;-65
2023/06/01 07:59:33;;;;;;;21.67;13.15;;;14.10;99.90;;;;;;5061117;28;20124;-66
2023/06/01 08:02:00;;;;;;;17.23;11.93;;;14.30;99.90;;;;;;5057172;28;20538;-66
2023/06/01 08:04:27;;;;;;;22.85;12.55;;;14.10;99.90;;;;;;5049968;28;20094;-65
2023/06/01 08:06:53;;;;;;;23.50;12.65;;;14.20;99.90;;;;;;5051147;28;20086;-65
2023/06/01 08:09:23;;;;;;;17.27;11.75;;;14.10;99.90;;;;;;5056167;28;20060;-65
2023/06/01 08:11:49;;;;;;;20.50;12.60;;;14.70;99.90;;;;;;5057529;28;20583;-65
2023/06/01 08:14:15;;;;;;;19.95;11.65;;;14.50;99.90;;;;;;5059781;28;20393;-66
2023/06/01 08:16:42;;;;;;;19.90;11.98;;;14.50;99.90;;;;;;5050462;28;20036;-66
2023/06/01 08:19:07;;;;;;;19.65;12.60;;;13.90;99.90;;;;;;5053664;28;20531;-65
2023/06/01 08:21:34;;;;;;;20.08;12.20;;;14.20;99.90;;;;;;5055911;28;20100;-65
2023/06/01 08:24:01;;;;;;;18.23;12.45;;;14.50;99.90;;;;;;5055075;28;20071;-65
2023/06/01 08:26:27;;;;;;;19.27;12.52;;;14.70;99.90;;;;;;5057434;28;20043;-65
2023/06/01 08:28:53;;;;;;;25.00;12.40;;;14.40;99.90;;;;;;5050853;28;20040;-66
2023/06/01 08:31:20;;;;;;;19.35;12.20;;;;;;;;;;5061061;28;20071;-66
2023/06/01 08:33:46;;;;;;;20.08;12.13;;;14.60;99.90;;;;;;5057025;28;20041;-66
2023/06/01 08:36:12;;;;;;;18.65;11.55;;;15.00;99.90;;;;;;5053880;28;20223;-65
2023/06/01 08:38:38;;;;;;;20.92;11.60;;;15.60;99.90;;;;;;5061659;28;20347;-66
2023/06/01 08:41:11;;;;;;;17.75;10.48;;;15.50;99.90;;;;;;5052723;28;20048;-65
2023/06/01 08:43:39;;;;;;;20.27;11.48;;;15.40;99.90;;;;;;5053722;28;20591;-66
2023/06/01 08:46:05;;;;;;;16.75;11.32;;;15.40;99.90;;;;;;5057468;28;20373;-66
2023/06/01 08:48:32;;;;;;;19.35;11.55;;;15.50;99.90;;;;;;5056439;28;20025;-66
2023/06/01 08:51:00;;;;;;;19.58;12.65;;;15.60;99.90;;;;;;5051378;28;20044;-66
2023/06/01 08:53:28;;;;;;;18.90;12.20;;;14.90;99.90;;;;;;5055381;28;20037;-65
2023/06/01 08:55:56;;;;;;;18.23;11.93;;;15.00;99.90;;;;;;5064201;28;20547;-65
2023/06/01 08:58:21;;;;;;;15.88;11.02;;;15.50;99.90;;;;;;5054345;28;20061;-66
2023/06/01 09:00:49;;;;;;;19.27;12.25;;;15.30;99.90;;;;;;5054711;28;20167;-65
2023/06/01 09:03:14;;;;;;;17.77;10.90;;;15.40;99.90;;;;;;5055986;28;20037;-65
2023/06/01 09:05:40;;;;;;;22.17;12.18;;;15.40;99.90;;;;;;5051737;28;20051;-65
2023/06/01 09:08:07;;;;;;;18.27;11.15;;;15.30;99.90;;;;;;5056033;28;20025;-65
2023/06/01 09:10:32;;;;;;;19.20;11.02;;;15.30;99.90;;;;;;5049051;28;20032;-66
2023/06/01 09:13:00;;;;;;;19.10;10.40;;;15.60;99.90;;;;;;5057449;28;20036;-66
2023/06/01 09:15:25;;;;;;;19.92;10.90;;;15.80;99.90;;;;;;5050995;28;20308;-66
2023/06/01 09:18:03;;;;;;;18.10;10.98;;;15.80;99.90;;;;;;5057912;28;20499;-66
2023/06/01 09:20:29;;;;;;;17.38;10.23;;;16.20;99.90;;;;;;5055331;28;20471;-66
2023/06/01 09:22:55;;;;;;;19.05;11.18;;;16.00;99.90;;;;;;5058328;28;20037;-65
2023/06/01 09:25:28;;;;;;;17.13;10.20;;;16.10;99.90;;;;;;5058462;28;20434;-66
2023/06/01 09:27:55;;;;;;;19.20;11.23;;;16.00;99.90;;;;;;5062262;28;20044;-66
2023/06/01 09:30:26;;;;;;;17.35;10.80;;;16.40;99.90;;;;;;5060126;28;20060;-66
2023/06/01 09:33:14;;;;;;;14.15;10.05;;;16.20;99.90;;;;;;5055716;28;20367;-67
2023/06/01 09:35:48;;;;;;;15.65;10.07;;;16.30;99.90;;;;;;5052966;28;20028;-66
2023/06/01 09:38:25;;;;;;;16.17;10.38;;;16.40;99.90;;;;;;5050426;28;20031;-66
2023/06/01 09:41:02;;;;;;;17.45;10.15;;;16.20;99.90;;;;;;5053332;28;20045;-66
2023/06/01 09:43:28;;;;;;;21.17;10.30;;;16.10;99.90;;;;;;5054196;28;20113;-66
2023/06/01 09:46:05;;;;;;;18.20;10.18;;;16.50;99.90;;;;;;5052446;28;20040;-66
2023/06/01 09:48:31;;;;;;;17.52;10.30;;;16.50;99.90;;;;;;5055896;28;20449;-66
2023/06/01 09:50:57;;;;;;;18.15;10.23;;;16.60;99.90;;;;;;5061376;28;20036;-66
2023/06/01 09:53:22;;;;;;;18.48;9.82;;;16.70;99.90;;;;;;5047067;28;20033;-66
2023/06/01 09:56:01;;;;;;;14.00;9.70;;;16.80;99.90;;;;;;5055857;28;20060;-66
2023/06/01 09:58:28;;;;;;;17.23;10.65;;;16.60;99.90;;;;;;5053411;28;20028;-66
2023/06/01 10:00:54;;;;;;;17.02;10.52;;;16.80;99.90;;;;;;5052239;28;20044;-66
2023/06/01 10:03:22;;;;;;;17.88;10.85;;;16.50;99.90;;;;;;5049617;28;20523;-67
2023/06/01 10:05:48;;;;;;;18.55;11.20;;;17.40;99.90;;;;;;5054435;28;20132;-66
2023/06/01 10:08:16;;;;;;;21.52;10.60;;;17.00;99.90;;;;;;5053138;28;20033;-65
2023/06/01 10:10:44;;;;;;;18.20;11.13;;;16.90;99.90;;;;;;5056497;28;20468;-66
2023/06/01 10:13:11;;;;;;;18.27;9.35;;;16.80;99.90;;;;;;5050653;28;20040;-65
2023/06/01 10:15:37;;;;;;;17.52;10.15;;;17.00;99.90;;;;;;5057008;28;20036;-66
2023/06/01 10:18:04;;;;;;;16.15;10.02;;;17.20;99.90;;;;;;5056735;28;20056;-65
2023/06/01 10:20:34;;;;;;;16.02;9.93;;;17.30;99.90;;;;;;5052272;28;20505;-66
2023/06/01 10:23:01;;;;;;;16.10;10.70;;;17.10;99.90;;;;;;5046290;28;20040;-66
2023/06/01 10:25:33;;;;;;;16.00;10.75;;;17.00;99.90;;;;;;5056535;28;20185;-66
2023/06/01 10:28:03;;;;;;;16.20;9.85;;;;;;;;;;5053047;28;20048;-66
2023/06/01 10:30:28;;;;;;;20.88;9.45;;;17.50;99.90;;;;;;5050284;28;21068;-67
2023/06/01 10:32:54;;;;;;;16.10;9.70;;;17.30;99.90;;;;;;5050773;28;20566;-65
2023/06/01 10:35:26;;;;;;;18.00;9.30;;;17.20;99.90;;;;;;5058796;28;20047;-67
2023/06/01 10:38:07;;;;;;;20.13;10.40;;;17.10;99.90;;;;;;5050768;28;20071;-67
2023/06/01 10:40:35;;;;;;;17.27;10.13;;;17.30;99.90;;;;;;5055873;28;20036;-66
2023/06/01 10:43:01;;;;;;;21.17;11.20;;;17.50;99.90;;;;;;5060848;28;20730;-66
2023/06/01 10:45:38;;;;;;;15.52;10.07;;;17.20;99.90;;;;;;5048061;28;20144;-66
2023/06/01 10:48:12;;;;;;;18.25;10.38;;;17.40;99.90;;;;;;5045490;28;20396;-65
2023/06/01 10:50:39;;;;;;;20.58;9.88;;;17.40;99.90;;;;;;5050161;28;20373;-66
2023/06/01 10:53:25;;;;;;;14.90;9.32;;;17.40;99.90;;;;;;5052584;28;20119;-65
2023/06/01 10:56:23;;;;;;;19.25;11.38;;;17.70;99.90;;;;;;5053225;28;20040;-66
2023/06/01 10:59:09;;;;;;;19.67;11.63;;;17.60;99.90;;;;;;5054549;28;20036;-66
2023/06/01 11:01:40;;;;;;;21.67;12.13;;;17.70;99.90;;;;;;5049751;28;20029;-66
2023/06/01 11:04:07;;;;;;;22.42;11.50;;;17.70;99.90;;;;;;5046852;28;20083;-66
2023/06/01 11:06:37;;;;;;;18.92;11.68;;;17.80;99.90;;;;;;5051459;28;20516;-66
2023/06/01 11:09:07;;;;;;;17.92;11.13;;;18.00;99.90;;;;;;5055172;28;20540;-65
2023/06/01 11:11:51;;;;;;;19.08;12.10;;;18.00;99.90;;;;;;5055584;28;20100;-67
2023/06/01 11:14:23;;;;;;;18.42;12.05;;;17.70;99.90;;;;;;5057163;28;20031;-66
2023/06/01 11:16:50;;;;;;;20.25;12.63;;;17.70;99.90;;;;;;5043032;28;20037;-66
2023/06/01 11:19:23;;;;;;;21.73;12.15;;;17.90;99.90;;;;;;5057318;28;20492;-66
2023/06/01 11:21:53;;;;;;;;;;;18.10;99.90;;;;;;5057066;28;20424;-66
2023/06/01 11:24:19;;;;;;;20.75;12.07;;;18.00;99.90;;;;;;5051967;28;19952;-66
2023/06/01 11:26:47;;;;;;;24.20;13.55;;;18.00;99.90;;;;;;5050726;28;20065;-67
2023/06/01 11:29:17;;;;;;;23.20;12.55;;;17.90;99.90;;;;;;5052654;28;20036;-67
2023/06/01 11:31:48;;;;;;;19.25;12.13;;;18.00;99.90;;;;;;5052460;28;20032;-67
2023/06/01 11:34:16;;;;;;;21.65;12.52;;;18.20;99.90;;;;;;5053615;28;20055;-66
2023/06/01 11:36:50;;;;;;;17.65;11.88;;;18.30;99.90;;;;;;5048999;28;20037;-66
2023/06/01 11:39:24;;;;;;;20.38;11.63;;;18.20;99.90;;;;;;5052153;28;20040;-66
2023/06/01 11:41:52;;;;;;;21.75;13.57;;;18.00;99.90;;;;;;5059747;28;20090;-67
2023/06/01 11:44:17;;;;;;;22.65;12.65;;;18.10;99.90;;;;;;5046550;28;20036;-67
2023/06/01 11:46:54;;;;;;;22.17;12.70;;;18.00;99.90;;;;;;5054622;28;20036;-67
2023/06/01 11:49:20;;;;;;;19.25;12.52;;;18.30;99.90;;;;;;5049809;28;20029;-67
2023/06/01 11:51:46;;;;;;;21.40;12.35;;;18.40;99.90;;;;;;5058591;28;20047;-67
2023/06/01 11:54:12;;;;;;;20.48;11.95;;;18.20;99.90;;;;;;5050505;28;20061;-67
2023/06/01 11:56:41;;;;;;;22.63;12.77;;;18.30;99.90;;;;;;5057313;28;20041;-68
2023/06/01 11:59:09;;;;;;;19.25;11.80;;;18.40;99.90;;;;;;5054360;28;20048;-66
2023/06/01 12:01:41;;;;;;;19.13;12.55;;;18.50;99.90;;;;;;5054010;28;20037;-66
2023/06/01 12:04:15;;;;;;;20.40;12.40;;;18.40;99.90;;;;;;5053410;28;20036;-66
2023/06/01 12:06:42;;;;;;;20.45;11.82;;;18.30;99.90;;;;;;5051061;28;20554;-67
2023/06/01 12:09:09;;;;;;;21.48;11.48;;;18.50;99.90;;;;;;5051214;28;20029;-66
2023/06/01 12:11:35;;;;;;;18.15;10.98;;;18.60;99.90;;;;;;5047687;28;20045;-66
2023/06/01 12:14:05;;;;;;;18.33;10.23;;;18.60;99.90;;;;;;5054541;28;20051;-67
2023/06/01 12:16:57;;;;;;;17.83;10.63;;;18.70;99.90;;;;;;5053760;28;20029;-67
2023/06/01 12:19:23;;;;;;;17.15;9.13;;;18.50;99.90;;;;;;5056621;28;20040;-67
2023/06/01 12:21:54;;;;;;;18.50;10.98;;;18.60;99.90;;;;;;5059364;28;20050;-67
2023/06/01 12:24:32;;;;;;;19.50;11.10;;;18.60;99.90;;;;;;5058255;28;20055;-68
2023/06/01 12:27:11;;;;;;;17.88;11.20;;;18.40;99.90;;;;;;5058149;28;20510;-68
2023/06/01 12:29:39;;;;;;;19.50;11.60;;;18.60;99.90;;;;;;5053678;28;20540;-67
2023/06/01 12:32:05;;;;;;;20.27;11.95;;;18.60;99.90;;;;;;5052546;28;20508;-67